sensor_id;sensor_type;location;lat;lon;timestamp;P1;durP1;ratioP1;P2;durP2;ratioP2
4597;SDS011;62772;48.646;8.906;2022-09-03T00:00:19;7.83;;;4.80;;
4597;SDS011;62772;48.646;8.906;2022-09-03T00:05:25;8.93;;;4.87;;
4597;SDS011;62772;48.646;8.906;2022-09-03T00:10:35;7.70;;;4.73;;
4597;SDS011;62772;48.646;8.906;2022-09-03T00:15:46;7.67;;;4.70;;
4597;SDS011;62772;48.646;8.906;2022-09-03T00:20:49;5.47;;;4.67;;
4597;SDS011;62772;48.646;8.906;2022-09-03T00:25:54;6.73;;;4.77;;
4597;SDS011;62772;48.646;8.906;2022-09-03T00:31:04;6.07;;;4.60;;
4597;SDS011;62772;48.646;8.906;2022-09-03T00:36:12;8.20;;;4.70;;
4597;SDS011;62772;48.646;8.906;2022-09-03T00:41:18;7.10;;;5.33;;
4597;SDS011;62772;48.646;8.906;2022-09-03T00:46:34;9.37;;;5.30;;
4597;SDS011;62772;48.646;8.906;2022-09-03T00:51:42;7.13;;;5.30;;
4597;SDS011;62772;48.646;8.906;2022-09-03T00:56:50;8.37;;;5.03;;
4597;SDS011;62772;48.646;8.906;2022-09-03T01:02:02;10.30;;;5.87;;
4597;SDS011;62772;48.646;8.906;2022-09-03T01:07:13;7.43;;;5.37;;
4597;SDS011;62772;48.646;8.906;2022-09-03T01:12:26;7.77;;;5.90;;
4597;SDS011;62772;48.646;8.906;2022-09-03T01:28:43;12.60;;;5.73;;
4597;SDS011;62772;48.646;8.906;2022-09-03T01:33:55;8.43;;;5.43;;
4597;SDS011;62772;48.646;8.906;2022-09-03T01:39:04;7.30;;;5.00;;
4597;SDS011;62772;48.646;8.906;2022-09-03T01:44:11;10.30;;;5.30;;
4597;SDS011;62772;48.646;8.906;2022-09-03T01:49:19;5.90;;;4.40;;
4597;SDS011;62772;48.646;8.906;2022-09-03T01:54:29;5.97;;;4.30;;
4597;SDS011;62772;48.646;8.906;2022-09-03T01:59:54;6.80;;;4.73;;
4597;SDS011;62772;48.646;8.906;2022-09-03T02:05:00;8.03;;;5.13;;
4597;SDS011;62772;48.646;8.906;2022-09-03T02:10:04;7.87;;;4.80;;
4597;SDS011;62772;48.646;8.906;2022-09-03T02:15:10;7.40;;;5.33;;
4597;SDS011;62772;48.646;8.906;2022-09-03T02:20:15;8.80;;;4.83;;
4597;SDS011;62772;48.646;8.906;2022-09-03T02:25:19;7.23;;;4.93;;
4597;SDS011;62772;48.646;8.906;2022-09-03T02:30:26;8.23;;;4.97;;
4597;SDS011;62772;48.646;8.906;2022-09-03T02:35:27;9.00;;;5.70;;
4597;SDS011;62772;48.646;8.906;2022-09-03T02:40:28;7.20;;;5.23;;
4597;SDS011;62772;48.646;8.906;2022-09-03T02:45:31;7.90;;;5.17;;
4597;SDS011;62772;48.646;8.906;2022-09-03T02:50:31;8.80;;;5.20;;
4597;SDS011;62772;48.646;8.906;2022-09-03T02:55:40;6.13;;;4.70;;
4597;SDS011;62772;48.646;8.906;2022-09-03T03:00:43;5.80;;;4.50;;
4597;SDS011;62772;48.646;8.906;2022-09-03T03:05:45;6.03;;;4.70;;
4597;SDS011;62772;48.646;8.906;2022-09-03T03:10:50;8.00;;;5.33;;
4597;SDS011;62772;48.646;8.906;2022-09-03T03:15:57;7.67;;;5.53;;
4597;SDS011;62772;48.646;8.906;2022-09-03T03:21:03;9.07;;;6.10;;
4597;SDS011;62772;48.646;8.906;2022-09-03T03:26:05;8.00;;;6.00;;
4597;SDS011;62772;48.646;8.906;2022-09-03T03:31:11;9.23;;;6.27;;
4597;SDS011;62772;48.646;8.906;2022-09-03T03:36:14;10.03;;;5.70;;
4597;SDS011;62772;48.646;8.906;2022-09-03T03:41:16;11.33;;;6.20;;
4597;SDS011;62772;48.646;8.906;2022-09-03T03:46:21;7.00;;;5.23;;
4597;SDS011;62772;48.646;8.906;2022-09-03T03:51:22;10.57;;;6.10;;
4597;SDS011;62772;48.646;8.906;2022-09-03T03:56:23;8.90;;;6.10;;
4597;SDS011;62772;48.646;8.906;2022-09-03T04:01:28;12.30;;;7.33;;
4597;SDS011;62772;48.646;8.906;2022-09-03T04:06:29;16.37;;;6.43;;
4597;SDS011;62772;48.646;8.906;2022-09-03T04:11:29;10.07;;;6.50;;
4597;SDS011;62772;48.646;8.906;2022-09-03T04:16:33;10.77;;;7.10;;
4597;SDS011;62772;48.646;8.906;2022-09-03T04:21:33;10.73;;;7.10;;
4597;SDS011;62772;48.646;8.906;2022-09-03T04:26:34;11.90;;;8.07;;
4597;SDS011;62772;48.646;8.906;2022-09-03T04:31:38;11.50;;;7.80;;
4597;SDS011;62772;48.646;8.906;2022-09-03T04:36:59;11.53;;;7.43;;
4597;SDS011;62772;48.646;8.906;2022-09-03T04:41:59;9.70;;;7.40;;
4597;SDS011;62772;48.646;8.906;2022-09-03T04:47:03;10.60;;;7.50;;
4597;SDS011;62772;48.646;8.906;2022-09-03T04:52:04;11.97;;;7.00;;
4597;SDS011;62772;48.646;8.906;2022-09-03T04:57:04;12.13;;;7.67;;
4597;SDS011;62772;48.646;8.906;2022-09-03T05:02:08;14.80;;;7.37;;
4597;SDS011;62772;48.646;8.906;2022-09-03T05:07:09;12.20;;;7.40;;
4597;SDS011;62772;48.646;8.906;2022-09-03T05:12:10;10.93;;;7.00;;
4597;SDS011;62772;48.646;8.906;2022-09-03T05:17:14;8.47;;;6.37;;
4597;SDS011;62772;48.646;8.906;2022-09-03T05:22:15;9.60;;;6.77;;
4597;SDS011;62772;48.646;8.906;2022-09-03T05:27:20;12.00;;;7.43;;
4597;SDS011;62772;48.646;8.906;2022-09-03T05:32:23;9.77;;;7.33;;
4597;SDS011;62772;48.646;8.906;2022-09-03T05:37:27;11.93;;;6.90;;
4597;SDS011;62772;48.646;8.906;2022-09-03T05:42:27;9.33;;;6.30;;
4597;SDS011;62772;48.646;8.906;2022-09-03T05:47:31;10.00;;;6.10;;
4597;SDS011;62772;48.646;8.906;2022-09-03T05:52:31;11.10;;;6.60;;
4597;SDS011;62772;48.646;8.906;2022-09-03T05:57:32;9.80;;;6.90;;
4597;SDS011;62772;48.646;8.906;2022-09-03T06:02:36;8.93;;;6.90;;
4597;SDS011;62772;48.646;8.906;2022-09-03T06:07:36;9.13;;;6.23;;
4597;SDS011;62772;48.646;8.906;2022-09-03T06:12:37;10.47;;;7.03;;
4597;SDS011;62772;48.646;8.906;2022-09-03T06:17:40;11.60;;;6.90;;
4597;SDS011;62772;48.646;8.906;2022-09-03T06:22:41;11.10;;;6.77;;
4597;SDS011;62772;48.646;8.906;2022-09-03T06:27:47;8.57;;;6.00;;
4597;SDS011;62772;48.646;8.906;2022-09-03T06:32:51;9.43;;;7.10;;
4597;SDS011;62772;48.646;8.906;2022-09-03T06:37:52;7.97;;;6.10;;
4597;SDS011;62772;48.646;8.906;2022-09-03T06:42:56;9.40;;;6.80;;
4597;SDS011;62772;48.646;8.906;2022-09-03T06:48:03;8.50;;;6.20;;
4597;SDS011;62772;48.646;8.906;2022-09-03T06:53:04;11.60;;;7.33;;
4597;SDS011;62772;48.646;8.906;2022-09-03T06:58:05;13.67;;;6.60;;
4597;SDS011;62772;48.646;8.906;2022-09-03T07:03:08;10.23;;;6.67;;
4597;SDS011;62772;48.646;8.906;2022-09-03T07:08:09;9.17;;;6.10;;
4597;SDS011;62772;48.646;8.906;2022-09-03T07:13:10;10.10;;;6.87;;
4597;SDS011;62772;48.646;8.906;2022-09-03T07:18:13;11.40;;;6.77;;
4597;SDS011;62772;48.646;8.906;2022-09-03T07:23:13;9.63;;;7.03;;
4597;SDS011;62772;48.646;8.906;2022-09-03T07:28:15;9.40;;;6.80;;
4597;SDS011;62772;48.646;8.906;2022-09-03T07:33:19;10.50;;;6.30;;
4597;SDS011;62772;48.646;8.906;2022-09-03T07:38:20;12.93;;;6.70;;
4597;SDS011;62772;48.646;8.906;2022-09-03T07:43:22;9.27;;;6.23;;
4597;SDS011;62772;48.646;8.906;2022-09-03T07:48:26;7.83;;;5.60;;
4597;SDS011;62772;48.646;8.906;2022-09-03T07:53:26;8.80;;;5.90;;
4597;SDS011;62772;48.646;8.906;2022-09-03T07:58:28;8.57;;;5.30;;
4597;SDS011;62772;48.646;8.906;2022-09-03T08:03:31;8.20;;;5.40;;
4597;SDS011;62772;48.646;8.906;2022-09-03T08:08:32;7.20;;;4.73;;
4597;SDS011;62772;48.646;8.906;2022-09-03T08:13:35;6.73;;;4.77;;
4597;SDS011;62772;48.646;8.906;2022-09-03T08:18:40;6.37;;;4.10;;
4597;SDS011;62772;48.646;8.906;2022-09-03T08:23:41;11.70;;;4.80;;
4597;SDS011;62772;48.646;8.906;2022-09-03T08:28:43;7.10;;;4.40;;
4597;SDS011;62772;48.646;8.906;2022-09-03T08:33:47;7.10;;;4.80;;
4597;SDS011;62772;48.646;8.906;2022-09-03T08:38:50;7.67;;;4.60;;
4597;SDS011;62772;48.646;8.906;2022-09-03T08:44:02;7.47;;;4.93;;
4597;SDS011;62772;48.646;8.906;2022-09-03T08:49:18;9.30;;;5.20;;
4597;SDS011;62772;48.646;8.906;2022-09-03T08:54:23;7.67;;;5.00;;
4597;SDS011;62772;48.646;8.906;2022-09-03T08:59:27;7.70;;;4.30;;
4597;SDS011;62772;48.646;8.906;2022-09-03T09:04:35;8.43;;;5.53;;
4597;SDS011;62772;48.646;8.906;2022-09-03T09:09:45;5.67;;;4.53;;
4597;SDS011;62772;48.646;8.906;2022-09-03T09:14:51;8.50;;;5.10;;
4597;SDS011;62772;48.646;8.906;2022-09-03T09:20:09;7.03;;;4.63;;
4597;SDS011;62772;48.646;8.906;2022-09-03T09:25:19;6.23;;;4.53;;
4597;SDS011;62772;48.646;8.906;2022-09-03T09:30:21;5.23;;;3.93;;
4597;SDS011;62772;48.646;8.906;2022-09-03T09:35:25;6.73;;;3.93;;
4597;SDS011;62772;48.646;8.906;2022-09-03T09:40:27;7.83;;;4.60;;
4597;SDS011;62772;48.646;8.906;2022-09-03T09:45:32;7.20;;;4.47;;
4597;SDS011;62772;48.646;8.906;2022-09-03T09:50:36;5.97;;;4.40;;
4597;SDS011;62772;48.646;8.906;2022-09-03T09:55:37;8.33;;;4.67;;
4597;SDS011;62772;48.646;8.906;2022-09-03T10:00:54;7.93;;;5.00;;
4597;SDS011;62772;48.646;8.906;2022-09-03T10:06:00;6.17;;;4.47;;
4597;SDS011;62772;48.646;8.906;2022-09-03T10:11:22;6.93;;;4.53;;
4597;SDS011;62772;48.646;8.906;2022-09-03T10:16:26;6.93;;;4.50;;
4597;SDS011;62772;48.646;8.906;2022-09-03T10:21:34;7.90;;;4.60;;
4597;SDS011;62772;48.646;8.906;2022-09-03T10:26:41;6.60;;;4.63;;
4597;SDS011;62772;48.646;8.906;2022-09-03T10:31:51;7.33;;;4.40;;
4597;SDS011;62772;48.646;8.906;2022-09-03T10:37:05;7.83;;;4.17;;
4597;SDS011;62772;48.646;8.906;2022-09-03T10:42:18;7.07;;;4.07;;
4597;SDS011;62772;48.646;8.906;2022-09-03T10:47:36;5.90;;;3.83;;
4597;SDS011;62772;48.646;8.906;2022-09-03T10:53:01;6.30;;;4.53;;
4597;SDS011;62772;48.646;8.906;2022-09-03T10:58:14;8.40;;;4.30;;
4597;SDS011;62772;48.646;8.906;2022-09-03T11:03:34;5.90;;;3.80;;
4597;SDS011;62772;48.646;8.906;2022-09-03T11:08:49;6.47;;;4.33;;
4597;SDS011;62772;48.646;8.906;2022-09-03T11:13:57;6.47;;;4.50;;
4597;SDS011;62772;48.646;8.906;2022-09-03T11:19:03;6.73;;;4.30;;
4597;SDS011;62772;48.646;8.906;2022-09-03T11:24:10;6.50;;;4.30;;
4597;SDS011;62772;48.646;8.906;2022-09-03T11:29:15;5.87;;;4.40;;
4597;SDS011;62772;48.646;8.906;2022-09-03T11:34:25;7.17;;;4.47;;
4597;SDS011;62772;48.646;8.906;2022-09-03T11:39:34;9.73;;;5.47;;
4597;SDS011;62772;48.646;8.906;2022-09-03T11:44:38;6.30;;;4.23;;
4597;SDS011;62772;48.646;8.906;2022-09-03T11:49:43;4.80;;;3.33;;
4597;SDS011;62772;48.646;8.906;2022-09-03T11:54:49;7.13;;;2.80;;
4597;SDS011;62772;48.646;8.906;2022-09-03T11:59:50;9.43;;;3.07;;
4597;SDS011;62772;48.646;8.906;2022-09-03T12:04:53;6.40;;;2.77;;
4597;SDS011;62772;48.646;8.906;2022-09-03T12:10:18;6.40;;;2.63;;
4597;SDS011;62772;48.646;8.906;2022-09-03T12:15:53;4.07;;;1.80;;
4597;SDS011;62772;48.646;8.906;2022-09-03T12:21:07;3.70;;;2.20;;
4597;SDS011;62772;48.646;8.906;2022-09-03T12:26:11;4.20;;;1.90;;
4597;SDS011;62772;48.646;8.906;2022-09-03T12:31:17;3.80;;;1.70;;
4597;SDS011;62772;48.646;8.906;2022-09-03T12:36:24;2.50;;;1.80;;
4597;SDS011;62772;48.646;8.906;2022-09-03T12:41:26;3.87;;;1.60;;
4597;SDS011;62772;48.646;8.906;2022-09-03T12:46:32;3.40;;;1.97;;
4597;SDS011;62772;48.646;8.906;2022-09-03T12:51:35;4.70;;;2.50;;
4597;SDS011;62772;48.646;8.906;2022-09-03T12:56:39;4.57;;;2.63;;
4597;SDS011;62772;48.646;8.906;2022-09-03T13:01:44;7.07;;;2.10;;
4597;SDS011;62772;48.646;8.906;2022-09-03T13:06:49;4.87;;;2.30;;
4597;SDS011;62772;48.646;8.906;2022-09-03T13:11:55;6.80;;;2.00;;
4597;SDS011;62772;48.646;8.906;2022-09-03T13:17:13;4.33;;;2.10;;
4597;SDS011;62772;48.646;8.906;2022-09-03T13:22:22;3.57;;;1.93;;
4597;SDS011;62772;48.646;8.906;2022-09-03T13:27:30;3.53;;;2.10;;
4597;SDS011;62772;48.646;8.906;2022-09-03T13:32:43;3.67;;;2.13;;
4597;SDS011;62772;48.646;8.906;2022-09-03T13:37:51;5.30;;;2.43;;
4597;SDS011;62772;48.646;8.906;2022-09-03T13:43:00;3.70;;;2.37;;
4597;SDS011;62772;48.646;8.906;2022-09-03T13:48:11;3.90;;;2.30;;
4597;SDS011;62772;48.646;8.906;2022-09-03T13:53:39;3.57;;;2.43;;
4597;SDS011;62772;48.646;8.906;2022-09-03T13:58:48;5.30;;;2.87;;
4597;SDS011;62772;48.646;8.906;2022-09-03T14:03:58;4.90;;;2.80;;
4597;SDS011;62772;48.646;8.906;2022-09-03T14:09:05;5.13;;;2.70;;
4597;SDS011;62772;48.646;8.906;2022-09-03T14:14:15;4.80;;;2.93;;
4597;SDS011;62772;48.646;8.906;2022-09-03T14:19:31;4.37;;;2.60;;
4597;SDS011;62772;48.646;8.906;2022-09-03T14:24:40;6.50;;;2.77;;
4597;SDS011;62772;48.646;8.906;2022-09-03T14:29:49;5.60;;;2.70;;
4597;SDS011;62772;48.646;8.906;2022-09-03T14:34:59;6.10;;;2.50;;
4597;SDS011;62772;48.646;8.906;2022-09-03T14:40:18;4.03;;;2.93;;
4597;SDS011;62772;48.646;8.906;2022-09-03T14:45:31;5.30;;;3.20;;
4597;SDS011;62772;48.646;8.906;2022-09-03T14:51:00;3.10;;;2.30;;
4597;SDS011;62772;48.646;8.906;2022-09-03T14:56:25;7.23;;;2.90;;
4597;SDS011;62772;48.646;8.906;2022-09-03T15:01:37;5.17;;;2.27;;
4597;SDS011;62772;48.646;8.906;2022-09-03T15:06:43;5.13;;;2.93;;
4597;SDS011;62772;48.646;8.906;2022-09-03T15:11:58;3.50;;;2.10;;
4597;SDS011;62772;48.646;8.906;2022-09-03T15:17:05;4.80;;;2.67;;
4597;SDS011;62772;48.646;8.906;2022-09-03T15:22:23;4.07;;;2.40;;
4597;SDS011;62772;48.646;8.906;2022-09-03T15:27:43;4.73;;;2.50;;
4597;SDS011;62772;48.646;8.906;2022-09-03T15:32:57;3.60;;;2.27;;
4597;SDS011;62772;48.646;8.906;2022-09-03T15:38:07;5.10;;;2.20;;
4597;SDS011;62772;48.646;8.906;2022-09-03T15:43:14;2.93;;;2.10;;
4597;SDS011;62772;48.646;8.906;2022-09-03T15:48:22;5.10;;;2.23;;
4597;SDS011;62772;48.646;8.906;2022-09-03T15:53:33;3.40;;;2.10;;
4597;SDS011;62772;48.646;8.906;2022-09-03T15:58:38;3.83;;;2.30;;
4597;SDS011;62772;48.646;8.906;2022-09-03T16:03:46;4.33;;;2.57;;
4597;SDS011;62772;48.646;8.906;2022-09-03T16:09:02;3.90;;;2.37;;
4597;SDS011;62772;48.646;8.906;2022-09-03T16:14:09;5.40;;;2.53;;
4597;SDS011;62772;48.646;8.906;2022-09-03T16:19:15;3.73;;;2.00;;
4597;SDS011;62772;48.646;8.906;2022-09-03T16:24:24;3.07;;;2.00;;
4597;SDS011;62772;48.646;8.906;2022-09-03T16:29:32;3.90;;;1.87;;
4597;SDS011;62772;48.646;8.906;2022-09-03T16:34:35;3.97;;;2.40;;
4597;SDS011;62772;48.646;8.906;2022-09-03T16:39:53;3.50;;;2.17;;
4597;SDS011;62772;48.646;8.906;2022-09-03T16:45:05;3.47;;;2.00;;
4597;SDS011;62772;48.646;8.906;2022-09-03T16:50:17;19.07;;;10.83;;
4597;SDS011;62772;48.646;8.906;2022-09-03T16:55:32;40.40;;;15.77;;
4597;SDS011;62772;48.646;8.906;2022-09-03T17:00:51;7.10;;;3.37;;
4597;SDS011;62772;48.646;8.906;2022-09-03T17:11:46;5.47;;;2.90;;
4597;SDS011;62772;48.646;8.906;2022-09-03T17:17:01;4.53;;;2.70;;
4597;SDS011;62772;48.646;8.906;2022-09-03T17:22:11;3.87;;;2.50;;
4597;SDS011;62772;48.646;8.906;2022-09-03T17:27:42;3.60;;;2.13;;
4597;SDS011;62772;48.646;8.906;2022-09-03T17:32:57;4.40;;;2.43;;
4597;SDS011;62772;48.646;8.906;2022-09-03T17:38:32;3.60;;;2.20;;
4597;SDS011;62772;48.646;8.906;2022-09-03T17:43:47;5.23;;;2.13;;
4597;SDS011;62772;48.646;8.906;2022-09-03T17:48:54;4.00;;;2.10;;
4597;SDS011;62772;48.646;8.906;2022-09-03T17:53:59;4.10;;;2.23;;
4597;SDS011;62772;48.646;8.906;2022-09-03T17:59:09;5.63;;;3.17;;
4597;SDS011;62772;48.646;8.906;2022-09-03T18:04:17;3.87;;;2.40;;
4597;SDS011;62772;48.646;8.906;2022-09-03T18:09:31;9.77;;;2.77;;
4597;SDS011;62772;48.646;8.906;2022-09-03T18:14:41;6.00;;;2.70;;
4597;SDS011;62772;48.646;8.906;2022-09-03T18:19:48;4.10;;;2.50;;
4597;SDS011;62772;48.646;8.906;2022-09-03T18:25:11;7.73;;;2.83;;
4597;SDS011;62772;48.646;8.906;2022-09-03T18:30:35;4.10;;;2.37;;
4597;SDS011;62772;48.646;8.906;2022-09-03T18:35:54;3.93;;;2.13;;
4597;SDS011;62772;48.646;8.906;2022-09-03T18:47:17;5.97;;;3.17;;
4597;SDS011;62772;48.646;8.906;2022-09-03T18:52:48;4.40;;;3.17;;
4597;SDS011;62772;48.646;8.906;2022-09-03T18:58:14;5.73;;;3.33;;
4597;SDS011;62772;48.646;8.906;2022-09-03T19:03:51;4.70;;;2.97;;
4597;SDS011;62772;48.646;8.906;2022-09-03T19:09:18;5.43;;;3.50;;
4597;SDS011;62772;48.646;8.906;2022-09-03T19:14:54;6.43;;;2.63;;
4597;SDS011;62772;48.646;8.906;2022-09-03T19:20:20;5.83;;;3.60;;
4597;SDS011;62772;48.646;8.906;2022-09-03T19:25:45;9.30;;;5.17;;
4597;SDS011;62772;48.646;8.906;2022-09-03T19:31:08;11.37;;;4.33;;
4597;SDS011;62772;48.646;8.906;2022-09-03T19:36:43;8.40;;;4.10;;
4597;SDS011;62772;48.646;8.906;2022-09-03T19:42:09;7.67;;;4.20;;
4597;SDS011;62772;48.646;8.906;2022-09-03T19:47:39;6.67;;;4.10;;
4597;SDS011;62772;48.646;8.906;2022-09-03T19:53:16;5.97;;;3.57;;
4597;SDS011;62772;48.646;8.906;2022-09-03T19:58:37;5.03;;;3.60;;
4597;SDS011;62772;48.646;8.906;2022-09-03T20:03:59;5.10;;;3.43;;
4597;SDS011;62772;48.646;8.906;2022-09-03T20:09:28;6.73;;;4.53;;
4597;SDS011;62772;48.646;8.906;2022-09-03T20:14:50;9.60;;;5.33;;
4597;SDS011;62772;48.646;8.906;2022-09-03T20:19:54;6.30;;;4.33;;
4597;SDS011;62772;48.646;8.906;2022-09-03T20:30:45;7.47;;;4.50;;
4597;SDS011;62772;48.646;8.906;2022-09-03T20:35:52;5.50;;;4.07;;
4597;SDS011;62772;48.646;8.906;2022-09-03T20:41:06;5.47;;;3.70;;
4597;SDS011;62772;48.646;8.906;2022-09-03T20:46:19;4.93;;;3.37;;
4597;SDS011;62772;48.646;8.906;2022-09-03T20:51:31;4.40;;;3.27;;
4597;SDS011;62772;48.646;8.906;2022-09-03T20:56:44;4.37;;;3.00;;
4597;SDS011;62772;48.646;8.906;2022-09-03T21:02:04;4.60;;;3.03;;
4597;SDS011;62772;48.646;8.906;2022-09-03T21:07:13;6.67;;;3.30;;
4597;SDS011;62772;48.646;8.906;2022-09-03T21:12:23;8.07;;;3.90;;
4597;SDS011;62772;48.646;8.906;2022-09-03T21:17:35;7.53;;;3.73;;
4597;SDS011;62772;48.646;8.906;2022-09-03T21:22:49;7.77;;;4.17;;
4597;SDS011;62772;48.646;8.906;2022-09-03T21:28:04;6.47;;;4.47;;
4597;SDS011;62772;48.646;8.906;2022-09-03T21:33:12;6.07;;;3.90;;
4597;SDS011;62772;48.646;8.906;2022-09-03T21:38:20;11.27;;;4.13;;
4597;SDS011;62772;48.646;8.906;2022-09-03T21:43:27;6.40;;;4.30;;
4597;SDS011;62772;48.646;8.906;2022-09-03T21:48:33;5.20;;;3.53;;
4597;SDS011;62772;48.646;8.906;2022-09-03T21:53:39;5.03;;;3.60;;
4597;SDS011;62772;48.646;8.906;2022-09-03T21:58:50;5.30;;;3.90;;
4597;SDS011;62772;48.646;8.906;2022-09-03T22:04:01;5.93;;;3.80;;
4597;SDS011;62772;48.646;8.906;2022-09-03T22:09:03;7.37;;;3.70;;
4597;SDS011;62772;48.646;8.906;2022-09-03T22:14:13;7.13;;;3.57;;
4597;SDS011;62772;48.646;8.906;2022-09-03T22:19:16;5.47;;;3.70;;
4597;SDS011;62772;48.646;8.906;2022-09-03T22:24:18;5.60;;;3.43;;
4597;SDS011;62772;48.646;8.906;2022-09-03T22:29:34;4.20;;;3.20;;
4597;SDS011;62772;48.646;8.906;2022-09-03T22:34:47;4.57;;;3.03;;
4597;SDS011;62772;48.646;8.906;2022-09-03T22:40:00;4.17;;;3.00;;
4597;SDS011;62772;48.646;8.906;2022-09-03T22:45:22;5.03;;;3.80;;
4597;SDS011;62772;48.646;8.906;2022-09-03T22:50:35;6.83;;;3.30;;
4597;SDS011;62772;48.646;8.906;2022-09-03T22:55:44;7.57;;;2.97;;
4597;SDS011;62772;48.646;8.906;2022-09-03T23:00:53;6.30;;;3.30;;
4597;SDS011;62772;48.646;8.906;2022-09-03T23:05:59;5.13;;;3.30;;
4597;SDS011;62772;48.646;8.906;2022-09-03T23:11:05;5.37;;;3.20;;
4597;SDS011;62772;48.646;8.906;2022-09-03T23:16:15;4.30;;;3.17;;
4597;SDS011;62772;48.646;8.906;2022-09-03T23:21:23;6.33;;;3.10;;
4597;SDS011;62772;48.646;8.906;2022-09-03T23:26:28;17.47;;;3.20;;
4597;SDS011;62772;48.646;8.906;2022-09-03T23:31:37;6.73;;;3.27;;
4597;SDS011;62772;48.646;8.906;2022-09-03T23:36:41;5.87;;;3.30;;
4597;SDS011;62772;48.646;8.906;2022-09-03T23:41:58;4.90;;;3.50;;
4597;SDS011;62772;48.646;8.906;2022-09-03T23:47:16;6.03;;;3.57;;
4597;SDS011;62772;48.646;8.906;2022-09-03T23:52:40;6.63;;;3.27;;
4597;SDS011;62772;48.646;8.906;2022-09-03T23:57:54;6.63;;;3.90;;
